sensor_id;sensor_type;location;lat;lon;timestamp;P1;durP1;ratioP1;P2;durP2;ratioP2
14526;SDS011;7350;51.208;4.238;2023-03-09T00:01:18;7.97;;;7.28;;
14526;SDS011;7350;51.208;4.238;2023-03-09T00:03:46;8.57;;;7.88;;
14526;SDS011;7350;51.208;4.238;2023-03-09T00:06:14;8.32;;;7.65;;
14526;SDS011;7350;51.208;4.238;2023-03-09T00:08:41;7.30;;;6.70;;
14526;SDS011;7350;51.208;4.238;2023-03-09T00:11:08;8.18;;;7.47;;
14526;SDS011;7350;51.208;4.238;2023-03-09T00:13:37;8.50;;;7.70;;
14526;SDS011;7350;51.208;4.238;2023-03-09T00:16:07;8.10;;;7.45;;
14526;SDS011;7350;51.208;4.238;2023-03-09T00:18:39;8.57;;;7.88;;
14526;SDS011;7350;51.208;4.238;2023-03-09T00:21:06;8.32;;;7.63;;
14526;SDS011;7350;51.208;4.238;2023-03-09T00:23:33;8.18;;;7.47;;
14526;SDS011;7350;51.208;4.238;2023-03-09T00:26:02;8.60;;;7.90;;
14526;SDS011;7350;51.208;4.238;2023-03-09T00:28:31;7.55;;;6.85;;
14526;SDS011;7350;51.208;4.238;2023-03-09T00:31:00;7.72;;;7.07;;
14526;SDS011;7350;51.208;4.238;2023-03-09T00:33:28;7.68;;;7.07;;
14526;SDS011;7350;51.208;4.238;2023-03-09T00:35:55;7.43;;;6.82;;
14526;SDS011;7350;51.208;4.238;2023-03-09T00:38:22;7.38;;;6.78;;
14526;SDS011;7350;51.208;4.238;2023-03-09T00:40:50;8.07;;;7.40;;
14526;SDS011;7350;51.208;4.238;2023-03-09T00:43:17;7.97;;;7.18;;
14526;SDS011;7350;51.208;4.238;2023-03-09T00:45:44;7.25;;;6.65;;
14526;SDS011;7350;51.208;4.238;2023-03-09T00:48:12;7.80;;;7.10;;
14526;SDS011;7350;51.208;4.238;2023-03-09T00:50:39;7.85;;;7.20;;
14526;SDS011;7350;51.208;4.238;2023-03-09T00:53:06;7.30;;;6.70;;
14526;SDS011;7350;51.208;4.238;2023-03-09T00:55:33;7.90;;;7.25;;
14526;SDS011;7350;51.208;4.238;2023-03-09T00:58:00;7.75;;;7.15;;
14526;SDS011;7350;51.208;4.238;2023-03-09T01:00:27;7.93;;;7.32;;
14526;SDS011;7350;51.208;4.238;2023-03-09T01:02:57;7.80;;;7.20;;
14526;SDS011;7350;51.208;4.238;2023-03-09T01:05:26;7.55;;;6.95;;
14526;SDS011;7350;51.208;4.238;2023-03-09T01:07:53;7.68;;;7.03;;
14526;SDS011;7350;51.208;4.238;2023-03-09T01:10:20;7.53;;;6.90;;
14526;SDS011;7350;51.208;4.238;2023-03-09T01:12:47;7.25;;;6.65;;
14526;SDS011;7350;51.208;4.238;2023-03-09T01:15:14;7.25;;;6.65;;
14526;SDS011;7350;51.208;4.238;2023-03-09T01:17:41;6.45;;;5.95;;
14526;SDS011;7350;51.208;4.238;2023-03-09T01:20:09;7.35;;;6.75;;
14526;SDS011;7350;51.208;4.238;2023-03-09T01:22:39;7.03;;;6.43;;
14526;SDS011;7350;51.208;4.238;2023-03-09T01:25:06;6.68;;;6.10;;
14526;SDS011;7350;51.208;4.238;2023-03-09T01:27:34;6.00;;;5.50;;
14526;SDS011;7350;51.208;4.238;2023-03-09T01:30:01;6.28;;;5.78;;
14526;SDS011;7350;51.208;4.238;2023-03-09T01:32:28;7.32;;;6.72;;
14526;SDS011;7350;51.208;4.238;2023-03-09T01:34:55;7.25;;;6.65;;
14526;SDS011;7350;51.208;4.238;2023-03-09T01:37:23;6.95;;;6.45;;
14526;SDS011;7350;51.208;4.238;2023-03-09T01:39:51;7.38;;;6.78;;
14526;SDS011;7350;51.208;4.238;2023-03-09T01:42:18;7.35;;;6.75;;
14526;SDS011;7350;51.208;4.238;2023-03-09T01:45:04;7.15;;;6.55;;
14526;SDS011;7350;51.208;4.238;2023-03-09T01:47:58;7.05;;;6.45;;
14526;SDS011;7350;51.208;4.238;2023-03-09T01:50:27;6.75;;;6.25;;
14526;SDS011;7350;51.208;4.238;2023-03-09T01:52:57;7.22;;;6.63;;
14526;SDS011;7350;51.208;4.238;2023-03-09T01:55:33;7.22;;;6.63;;
14526;SDS011;7350;51.208;4.238;2023-03-09T01:58:06;6.97;;;6.43;;
14526;SDS011;7350;51.208;4.238;2023-03-09T02:00:36;6.80;;;6.30;;
14526;SDS011;7350;51.208;4.238;2023-03-09T02:03:07;6.45;;;5.90;;
14526;SDS011;7350;51.208;4.238;2023-03-09T02:05:38;6.15;;;5.65;;
14526;SDS011;7350;51.208;4.238;2023-03-09T02:08:10;6.45;;;5.95;;
14526;SDS011;7350;51.208;4.238;2023-03-09T02:10:40;6.93;;;6.32;;
14526;SDS011;7350;51.208;4.238;2023-03-09T02:13:12;6.57;;;6.07;;
14526;SDS011;7350;51.208;4.238;2023-03-09T02:15:41;6.35;;;5.85;;
14526;SDS011;7350;51.208;4.238;2023-03-09T02:18:08;6.10;;;5.60;;
14526;SDS011;7350;51.208;4.238;2023-03-09T02:20:37;6.25;;;5.75;;
14526;SDS011;7350;51.208;4.238;2023-03-09T02:23:12;6.18;;;5.68;;
14526;SDS011;7350;51.208;4.238;2023-03-09T02:25:47;6.22;;;5.72;;
14526;SDS011;7350;51.208;4.238;2023-03-09T02:28:18;6.30;;;5.80;;
14526;SDS011;7350;51.208;4.238;2023-03-09T02:30:45;6.20;;;5.70;;
14526;SDS011;7350;51.208;4.238;2023-03-09T02:33:21;6.22;;;5.68;;
14526;SDS011;7350;51.208;4.238;2023-03-09T02:35:51;5.93;;;5.43;;
14526;SDS011;7350;51.208;4.238;2023-03-09T02:38:18;6.68;;;6.10;;
14526;SDS011;7350;51.208;4.238;2023-03-09T02:40:45;6.13;;;5.63;;
14526;SDS011;7350;51.208;4.238;2023-03-09T02:43:14;5.57;;;5.13;;
14526;SDS011;7350;51.208;4.238;2023-03-09T02:45:44;6.53;;;5.93;;
14526;SDS011;7350;51.208;4.238;2023-03-09T02:48:12;5.93;;;5.43;;
14526;SDS011;7350;51.208;4.238;2023-03-09T02:50:39;6.85;;;6.32;;
14526;SDS011;7350;51.208;4.238;2023-03-09T02:53:06;6.00;;;5.50;;
14526;SDS011;7350;51.208;4.238;2023-03-09T02:55:33;6.25;;;5.75;;
14526;SDS011;7350;51.208;4.238;2023-03-09T02:58:00;6.20;;;5.70;;
14526;SDS011;7350;51.208;4.238;2023-03-09T03:00:27;5.68;;;5.18;;
14526;SDS011;7350;51.208;4.238;2023-03-09T03:02:55;5.80;;;5.30;;
14526;SDS011;7350;51.208;4.238;2023-03-09T03:05:22;6.25;;;5.75;;
14526;SDS011;7350;51.208;4.238;2023-03-09T03:07:49;6.15;;;5.65;;
14526;SDS011;7350;51.208;4.238;2023-03-09T03:10:16;5.85;;;5.35;;
14526;SDS011;7350;51.208;4.238;2023-03-09T03:12:43;5.88;;;5.38;;
14526;SDS011;7350;51.208;4.238;2023-03-09T03:15:10;5.60;;;5.20;;
14526;SDS011;7350;51.208;4.238;2023-03-09T03:17:38;5.90;;;5.40;;
14526;SDS011;7350;51.208;4.238;2023-03-09T03:20:06;5.05;;;4.65;;
14526;SDS011;7350;51.208;4.238;2023-03-09T03:22:38;6.40;;;5.90;;
14526;SDS011;7350;51.208;4.238;2023-03-09T03:25:06;5.57;;;5.18;;
14526;SDS011;7350;51.208;4.238;2023-03-09T03:27:33;5.97;;;5.47;;
14526;SDS011;7350;51.208;4.238;2023-03-09T03:30:00;5.50;;;5.00;;
14526;SDS011;7350;51.208;4.238;2023-03-09T03:32:27;5.82;;;5.32;;
14526;SDS011;7350;51.208;4.238;2023-03-09T03:34:54;5.25;;;4.85;;
14526;SDS011;7350;51.208;4.238;2023-03-09T03:37:23;5.93;;;5.43;;
14526;SDS011;7350;51.208;4.238;2023-03-09T03:39:50;5.30;;;4.90;;
14526;SDS011;7350;51.208;4.238;2023-03-09T03:42:17;5.10;;;4.70;;
14526;SDS011;7350;51.208;4.238;2023-03-09T03:44:44;5.28;;;4.85;;
14526;SDS011;7350;51.208;4.238;2023-03-09T03:47:11;4.60;;;4.20;;
14526;SDS011;7350;51.208;4.238;2023-03-09T03:49:38;4.88;;;4.47;;
14526;SDS011;7350;51.208;4.238;2023-03-09T03:52:06;4.55;;;4.15;;
14526;SDS011;7350;51.208;4.238;2023-03-09T03:54:35;4.78;;;4.38;;
14526;SDS011;7350;51.208;4.238;2023-03-09T03:57:02;4.30;;;3.92;;
14526;SDS011;7350;51.208;4.238;2023-03-09T03:59:30;4.85;;;4.45;;
14526;SDS011;7350;51.208;4.238;2023-03-09T04:01:57;5.07;;;4.68;;
14526;SDS011;7350;51.208;4.238;2023-03-09T04:04:24;4.82;;;4.43;;
14526;SDS011;7350;51.208;4.238;2023-03-09T04:06:51;4.72;;;4.32;;
14526;SDS011;7350;51.208;4.238;2023-03-09T04:09:18;4.85;;;4.45;;
14526;SDS011;7350;51.208;4.238;2023-03-09T04:11:46;5.03;;;4.53;;
14526;SDS011;7350;51.208;4.238;2023-03-09T04:14:15;5.28;;;4.65;;
14526;SDS011;7350;51.208;4.238;2023-03-09T04:16:41;4.72;;;4.32;;
14526;SDS011;7350;51.208;4.238;2023-03-09T04:19:08;4.78;;;4.38;;
14526;SDS011;7350;51.208;4.238;2023-03-09T04:21:35;4.47;;;4.07;;
14526;SDS011;7350;51.208;4.238;2023-03-09T04:24:02;6.78;;;4.60;;
14526;SDS011;7350;51.208;4.238;2023-03-09T04:26:30;4.75;;;4.35;;
14526;SDS011;7350;51.208;4.238;2023-03-09T04:28:58;4.80;;;4.40;;
14526;SDS011;7350;51.208;4.238;2023-03-09T04:31:25;4.63;;;4.22;;
14526;SDS011;7350;51.208;4.238;2023-03-09T04:33:52;4.82;;;4.43;;
14526;SDS011;7350;51.208;4.238;2023-03-09T04:36:19;5.10;;;4.70;;
14526;SDS011;7350;51.208;4.238;2023-03-09T04:38:46;4.70;;;4.30;;
14526;SDS011;7350;51.208;4.238;2023-03-09T04:41:13;4.82;;;4.43;;
14526;SDS011;7350;51.208;4.238;2023-03-09T04:43:40;4.57;;;4.18;;
14526;SDS011;7350;51.208;4.238;2023-03-09T04:46:08;5.22;;;4.82;;
14526;SDS011;7350;51.208;4.238;2023-03-09T04:48:35;4.80;;;4.40;;
14526;SDS011;7350;51.208;4.238;2023-03-09T04:51:03;4.90;;;4.40;;
14526;SDS011;7350;51.208;4.238;2023-03-09T04:53:30;5.40;;;4.90;;
14526;SDS011;7350;51.208;4.238;2023-03-09T04:55:57;5.63;;;5.13;;
14526;SDS011;7350;51.208;4.238;2023-03-09T04:58:24;5.25;;;4.75;;
14526;SDS011;7350;51.208;4.238;2023-03-09T05:00:51;5.38;;;4.97;;
14526;SDS011;7350;51.208;4.238;2023-03-09T05:03:19;4.70;;;4.30;;
14526;SDS011;7350;51.208;4.238;2023-03-09T05:05:46;4.93;;;4.43;;
14526;SDS011;7350;51.208;4.238;2023-03-09T05:08:13;4.80;;;4.40;;
14526;SDS011;7350;51.208;4.238;2023-03-09T05:10:40;5.05;;;4.63;;
14526;SDS011;7350;51.208;4.238;2023-03-09T05:13:07;4.70;;;4.28;;
14526;SDS011;7350;51.208;4.238;2023-03-09T05:15:36;4.00;;;3.60;;
14526;SDS011;7350;51.208;4.238;2023-03-09T05:18:04;4.57;;;4.00;;
14526;SDS011;7350;51.208;4.238;2023-03-09T05:20:32;4.63;;;3.95;;
14526;SDS011;7350;51.208;4.238;2023-03-09T05:22:59;4.63;;;3.60;;
14526;SDS011;7350;51.208;4.238;2023-03-09T05:25:27;4.32;;;3.92;;
14526;SDS011;7350;51.208;4.238;2023-03-09T05:27:54;4.05;;;3.65;;
14526;SDS011;7350;51.208;4.238;2023-03-09T05:30:22;4.55;;;4.15;;
14526;SDS011;7350;51.208;4.238;2023-03-09T05:32:49;4.05;;;3.65;;
14526;SDS011;7350;51.208;4.238;2023-03-09T05:35:17;4.70;;;4.30;;
14526;SDS011;7350;51.208;4.238;2023-03-09T05:37:46;4.53;;;3.90;;
14526;SDS011;7350;51.208;4.238;2023-03-09T05:40:13;4.05;;;3.65;;
14526;SDS011;7350;51.208;4.238;2023-03-09T05:42:42;4.20;;;3.80;;
14526;SDS011;7350;51.208;4.238;2023-03-09T05:45:09;3.50;;;3.20;;
14526;SDS011;7350;51.208;4.238;2023-03-09T05:47:36;3.90;;;3.50;;
14526;SDS011;7350;51.208;4.238;2023-03-09T05:50:05;3.78;;;3.47;;
14526;SDS011;7350;51.208;4.238;2023-03-09T05:52:32;3.85;;;3.55;;
14526;SDS011;7350;51.208;4.238;2023-03-09T05:55:00;4.50;;;4.10;;
14526;SDS011;7350;51.208;4.238;2023-03-09T05:57:27;3.65;;;3.35;;
14526;SDS011;7350;51.208;4.238;2023-03-09T05:59:54;3.70;;;3.40;;
14526;SDS011;7350;51.208;4.238;2023-03-09T06:02:21;3.92;;;3.40;;
14526;SDS011;7350;51.208;4.238;2023-03-09T06:04:49;4.55;;;3.58;;
14526;SDS011;7350;51.208;4.238;2023-03-09T06:07:16;4.63;;;4.15;;
14526;SDS011;7350;51.208;4.238;2023-03-09T06:09:43;4.88;;;4.25;;
14526;SDS011;7350;51.208;4.238;2023-03-09T06:12:11;3.75;;;3.45;;
14526;SDS011;7350;51.208;4.238;2023-03-09T06:14:40;3.95;;;3.55;;
14526;SDS011;7350;51.208;4.238;2023-03-09T06:17:07;3.88;;;3.58;;
14526;SDS011;7350;51.208;4.238;2023-03-09T06:19:34;4.05;;;3.60;;
14526;SDS011;7350;51.208;4.238;2023-03-09T06:22:01;3.80;;;3.50;;
14526;SDS011;7350;51.208;4.238;2023-03-09T06:24:28;3.78;;;3.47;;
14526;SDS011;7350;51.208;4.238;2023-03-09T06:26:56;3.88;;;3.58;;
14526;SDS011;7350;51.208;4.238;2023-03-09T06:29:24;3.75;;;3.40;;
14526;SDS011;7350;51.208;4.238;2023-03-09T06:31:51;4.03;;;3.53;;
14526;SDS011;7350;51.208;4.238;2023-03-09T06:34:18;3.90;;;3.60;;
14526;SDS011;7350;51.208;4.238;2023-03-09T06:36:45;4.03;;;3.67;;
14526;SDS011;7350;51.208;4.238;2023-03-09T06:39:13;3.58;;;3.28;;
14526;SDS011;7350;51.208;4.238;2023-03-09T06:41:40;3.85;;;3.55;;
14526;SDS011;7350;51.208;4.238;2023-03-09T06:44:07;4.00;;;3.70;;
14526;SDS011;7350;51.208;4.238;2023-03-09T06:46:35;4.07;;;3.78;;
14526;SDS011;7350;51.208;4.238;2023-03-09T06:49:02;3.67;;;3.38;;
14526;SDS011;7350;51.208;4.238;2023-03-09T06:51:29;3.78;;;3.47;;
14526;SDS011;7350;51.208;4.238;2023-03-09T06:53:56;3.65;;;3.35;;
14526;SDS011;7350;51.208;4.238;2023-03-09T06:56:23;3.80;;;3.50;;
14526;SDS011;7350;51.208;4.238;2023-03-09T06:58:52;4.10;;;3.70;;
14526;SDS011;7350;51.208;4.238;2023-03-09T07:01:19;4.00;;;3.70;;
14526;SDS011;7350;51.208;4.238;2023-03-09T07:03:48;4.22;;;3.83;;
14526;SDS011;7350;51.208;4.238;2023-03-09T07:06:15;4.13;;;3.83;;
14526;SDS011;7350;51.208;4.238;2023-03-09T07:08:42;4.47;;;4.07;;
14526;SDS011;7350;51.208;4.238;2023-03-09T07:11:09;4.38;;;4.07;;
14526;SDS011;7350;51.208;4.238;2023-03-09T07:13:36;4.07;;;3.78;;
14526;SDS011;7350;51.208;4.238;2023-03-09T07:16:03;5.07;;;4.65;;
14526;SDS011;7350;51.208;4.238;2023-03-09T07:18:30;4.75;;;4.35;;
14526;SDS011;7350;51.208;4.238;2023-03-09T07:20:59;4.88;;;4.47;;
14526;SDS011;7350;51.208;4.238;2023-03-09T07:23:27;4.30;;;3.90;;
14526;SDS011;7350;51.208;4.238;2023-03-09T07:25:54;4.55;;;4.15;;
14526;SDS011;7350;51.208;4.238;2023-03-09T07:28:25;4.57;;;4.18;;
14526;SDS011;7350;51.208;4.238;2023-03-09T07:30:52;4.22;;;3.90;;
14526;SDS011;7350;51.208;4.238;2023-03-09T07:33:19;4.78;;;4.28;;
14526;SDS011;7350;51.208;4.238;2023-03-09T07:35:46;4.57;;;4.18;;
14526;SDS011;7350;51.208;4.238;2023-03-09T07:38:14;4.38;;;3.97;;
14526;SDS011;7350;51.208;4.238;2023-03-09T07:40:41;4.95;;;4.55;;
14526;SDS011;7350;51.208;4.238;2023-03-09T07:43:09;4.53;;;4.13;;
14526;SDS011;7350;51.208;4.238;2023-03-09T07:45:37;4.70;;;4.30;;
14526;SDS011;7350;51.208;4.238;2023-03-09T07:48:05;4.82;;;4.43;;
14526;SDS011;7350;51.208;4.238;2023-03-09T07:50:32;4.45;;;4.05;;
14526;SDS011;7350;51.208;4.238;2023-03-09T07:52:59;4.68;;;4.28;;
14526;SDS011;7350;51.208;4.238;2023-03-09T07:55:28;4.65;;;4.10;;
14526;SDS011;7350;51.208;4.238;2023-03-09T07:57:59;4.47;;;4.07;;
14526;SDS011;7350;51.208;4.238;2023-03-09T08:00:26;4.95;;;4.50;;
14526;SDS011;7350;51.208;4.238;2023-03-09T08:02:54;4.80;;;4.40;;
14526;SDS011;7350;51.208;4.238;2023-03-09T08:05:22;4.95;;;4.47;;
14526;SDS011;7350;51.208;4.238;2023-03-09T08:07:50;4.53;;;4.13;;
14526;SDS011;7350;51.208;4.238;2023-03-09T08:10:17;4.82;;;4.43;;
14526;SDS011;7350;51.208;4.238;2023-03-09T08:12:48;6.53;;;5.93;;
14526;SDS011;7350;51.208;4.238;2023-03-09T08:15:16;6.47;;;5.90;;
14526;SDS011;7350;51.208;4.238;2023-03-09T08:17:45;6.18;;;5.68;;
14526;SDS011;7350;51.208;4.238;2023-03-09T08:20:13;6.30;;;5.70;;
14526;SDS011;7350;51.208;4.238;2023-03-09T08:22:40;6.30;;;5.70;;
14526;SDS011;7350;51.208;4.238;2023-03-09T08:25:07;6.95;;;6.15;;
14526;SDS011;7350;51.208;4.238;2023-03-09T08:27:38;7.13;;;6.45;;
14526;SDS011;7350;51.208;4.238;2023-03-09T08:30:08;6.30;;;5.78;;
14526;SDS011;7350;51.208;4.238;2023-03-09T08:32:37;7.25;;;6.55;;
14526;SDS011;7350;51.208;4.238;2023-03-09T08:35:04;7.72;;;6.93;;
14526;SDS011;7350;51.208;4.238;2023-03-09T08:37:32;6.97;;;6.28;;
14526;SDS011;7350;51.208;4.238;2023-03-09T08:39:58;7.20;;;6.50;;
14526;SDS011;7350;51.208;4.238;2023-03-09T08:42:25;7.25;;;6.55;;
14526;SDS011;7350;51.208;4.238;2023-03-09T08:44:53;7.15;;;6.47;;
14526;SDS011;7350;51.208;4.238;2023-03-09T08:47:21;7.47;;;6.80;;
14526;SDS011;7350;51.208;4.238;2023-03-09T08:49:48;6.85;;;6.15;;
14526;SDS011;7350;51.208;4.238;2023-03-09T08:52:15;7.03;;;6.43;;
14526;SDS011;7350;51.208;4.238;2023-03-09T08:54:42;7.38;;;6.63;;
14526;SDS011;7350;51.208;4.238;2023-03-09T08:57:09;8.50;;;6.25;;
14526;SDS011;7350;51.208;4.238;2023-03-09T08:59:37;7.47;;;6.78;;
14526;SDS011;7350;51.208;4.238;2023-03-09T09:02:04;6.57;;;5.97;;
14526;SDS011;7350;51.208;4.238;2023-03-09T09:04:32;7.18;;;6.47;;
14526;SDS011;7350;51.208;4.238;2023-03-09T09:06:59;7.28;;;6.63;;
14526;SDS011;7350;51.208;4.238;2023-03-09T09:09:26;7.47;;;6.78;;
14526;SDS011;7350;51.208;4.238;2023-03-09T09:11:53;7.78;;;6.95;;
14526;SDS011;7350;51.208;4.238;2023-03-09T09:14:20;7.82;;;7.03;;
14526;SDS011;7350;51.208;4.238;2023-03-09T09:16:47;8.27;;;7.05;;
14526;SDS011;7350;51.208;4.238;2023-03-09T09:19:14;8.23;;;7.43;;
14526;SDS011;7350;51.208;4.238;2023-03-09T09:21:43;9.20;;;8.05;;
14526;SDS011;7350;51.208;4.238;2023-03-09T09:24:10;9.13;;;8.23;;
14526;SDS011;7350;51.208;4.238;2023-03-09T09:26:37;8.77;;;7.88;;
14526;SDS011;7350;51.208;4.238;2023-03-09T09:29:06;9.90;;;8.95;;
14526;SDS011;7350;51.208;4.238;2023-03-09T09:31:33;11.00;;;9.02;;
14526;SDS011;7350;51.208;4.238;2023-03-09T09:34:00;10.52;;;9.48;;
14526;SDS011;7350;51.208;4.238;2023-03-09T09:36:27;11.57;;;9.35;;
14526;SDS011;7350;51.208;4.238;2023-03-09T09:38:55;12.15;;;10.18;;
14526;SDS011;7350;51.208;4.238;2023-03-09T09:41:24;11.10;;;9.90;;
14526;SDS011;7350;51.208;4.238;2023-03-09T09:43:54;11.90;;;10.30;;
14526;SDS011;7350;51.208;4.238;2023-03-09T09:46:23;12.45;;;10.60;;
14526;SDS011;7350;51.208;4.238;2023-03-09T09:48:50;14.20;;;10.70;;
14526;SDS011;7350;51.208;4.238;2023-03-09T09:51:21;13.05;;;10.85;;
14526;SDS011;7350;51.208;4.238;2023-03-09T09:54:09;12.43;;;10.55;;
14526;SDS011;7350;51.208;4.238;2023-03-09T09:56:45;13.60;;;10.90;;
14526;SDS011;7350;51.208;4.238;2023-03-09T09:59:15;13.13;;;10.75;;
14526;SDS011;7350;51.208;4.238;2023-03-09T10:01:48;12.68;;;11.02;;
14526;SDS011;7350;51.208;4.238;2023-03-09T10:04:21;14.68;;;11.10;;
14526;SDS011;7350;51.208;4.238;2023-03-09T10:06:54;13.07;;;11.15;;
14526;SDS011;7350;51.208;4.238;2023-03-09T10:09:26;14.25;;;11.70;;
14526;SDS011;7350;51.208;4.238;2023-03-09T10:11:56;12.18;;;10.88;;
14526;SDS011;7350;51.208;4.238;2023-03-09T10:14:28;15.55;;;11.52;;
14526;SDS011;7350;51.208;4.238;2023-03-09T10:16:58;13.98;;;11.50;;
14526;SDS011;7350;51.208;4.238;2023-03-09T10:19:31;13.40;;;11.48;;
14526;SDS011;7350;51.208;4.238;2023-03-09T10:21:59;15.20;;;11.63;;
14526;SDS011;7350;51.208;4.238;2023-03-09T10:24:29;13.40;;;11.93;;
14526;SDS011;7350;51.208;4.238;2023-03-09T10:27:01;14.25;;;11.48;;
14526;SDS011;7350;51.208;4.238;2023-03-09T10:29:39;12.65;;;11.35;;
14526;SDS011;7350;51.208;4.238;2023-03-09T10:32:12;13.48;;;10.93;;
14526;SDS011;7350;51.208;4.238;2023-03-09T10:34:48;14.48;;;11.10;;
14526;SDS011;7350;51.208;4.238;2023-03-09T10:37:23;13.10;;;11.23;;
14526;SDS011;7350;51.208;4.238;2023-03-09T10:39:52;13.05;;;11.48;;
14526;SDS011;7350;51.208;4.238;2023-03-09T10:42:21;12.45;;;11.15;;
14526;SDS011;7350;51.208;4.238;2023-03-09T10:45:04;12.63;;;11.30;;
14526;SDS011;7350;51.208;4.238;2023-03-09T10:47:50;13.32;;;11.10;;
14526;SDS011;7350;51.208;4.238;2023-03-09T10:50:19;12.38;;;11.18;;
14526;SDS011;7350;51.208;4.238;2023-03-09T10:52:47;12.30;;;11.00;;
14526;SDS011;7350;51.208;4.238;2023-03-09T10:55:22;13.80;;;12.00;;
14526;SDS011;7350;51.208;4.238;2023-03-09T10:57:58;11.93;;;10.73;;
14526;SDS011;7350;51.208;4.238;2023-03-09T11:00:27;12.20;;;11.00;;
14526;SDS011;7350;51.208;4.238;2023-03-09T11:02:54;12.82;;;11.48;;
14526;SDS011;7350;51.208;4.238;2023-03-09T11:05:25;13.32;;;12.02;;
14526;SDS011;7350;51.208;4.238;2023-03-09T11:07:53;14.00;;;11.55;;
14526;SDS011;7350;51.208;4.238;2023-03-09T11:10:25;14.48;;;12.38;;
14526;SDS011;7350;51.208;4.238;2023-03-09T11:12:54;16.63;;;12.05;;
14526;SDS011;7350;51.208;4.238;2023-03-09T11:15:26;16.38;;;11.38;;
14526;SDS011;7350;51.208;4.238;2023-03-09T11:17:55;14.93;;;11.77;;
14526;SDS011;7350;51.208;4.238;2023-03-09T11:20:24;14.80;;;12.55;;
14526;SDS011;7350;51.208;4.238;2023-03-09T11:22:58;16.92;;;13.00;;
14526;SDS011;7350;51.208;4.238;2023-03-09T11:25:45;16.58;;;12.65;;
14526;SDS011;7350;51.208;4.238;2023-03-09T11:28:23;14.93;;;13.13;;
14526;SDS011;7350;51.208;4.238;2023-03-09T11:30:55;15.25;;;13.45;;
14526;SDS011;7350;51.208;4.238;2023-03-09T11:33:23;15.90;;;12.23;;
14526;SDS011;7350;51.208;4.238;2023-03-09T11:35:52;16.02;;;12.85;;
14526;SDS011;7350;51.208;4.238;2023-03-09T11:38:20;16.10;;;12.77;;
14526;SDS011;7350;51.208;4.238;2023-03-09T11:40:51;15.18;;;12.73;;
14526;SDS011;7350;51.208;4.238;2023-03-09T11:43:32;17.20;;;13.15;;
14526;SDS011;7350;51.208;4.238;2023-03-09T11:46:04;16.30;;;13.18;;
14526;SDS011;7350;51.208;4.238;2023-03-09T11:48:35;15.48;;;12.68;;
14526;SDS011;7350;51.208;4.238;2023-03-09T11:51:05;15.50;;;12.35;;
14526;SDS011;7350;51.208;4.238;2023-03-09T11:53:36;13.73;;;12.32;;
14526;SDS011;7350;51.208;4.238;2023-03-09T11:56:15;13.32;;;11.82;;
14526;SDS011;7350;51.208;4.238;2023-03-09T11:58:46;15.82;;;12.80;;
14526;SDS011;7350;51.208;4.238;2023-03-09T12:01:30;15.40;;;11.70;;
14526;SDS011;7350;51.208;4.238;2023-03-09T12:04:03;14.32;;;12.07;;
14526;SDS011;7350;51.208;4.238;2023-03-09T12:06:38;13.57;;;11.75;;
14526;SDS011;7350;51.208;4.238;2023-03-09T12:09:15;13.90;;;12.43;;
14526;SDS011;7350;51.208;4.238;2023-03-09T12:11:50;13.65;;;11.55;;
14526;SDS011;7350;51.208;4.238;2023-03-09T12:14:21;12.65;;;11.35;;
14526;SDS011;7350;51.208;4.238;2023-03-09T12:16:52;13.95;;;11.57;;
14526;SDS011;7350;51.208;4.238;2023-03-09T12:19:21;12.75;;;11.30;;
14526;SDS011;7350;51.208;4.238;2023-03-09T12:21:57;13.98;;;11.05;;
14526;SDS011;7350;51.208;4.238;2023-03-09T12:24:31;15.43;;;11.35;;
14526;SDS011;7350;51.208;4.238;2023-03-09T12:27:03;13.38;;;10.93;;
14526;SDS011;7350;51.208;4.238;2023-03-09T12:29:39;13.80;;;11.93;;
14526;SDS011;7350;51.208;4.238;2023-03-09T12:35:02;12.27;;;10.98;;
14526;SDS011;7350;51.208;4.238;2023-03-09T12:37:49;12.77;;;11.48;;
14526;SDS011;7350;51.208;4.238;2023-03-09T12:40:21;11.75;;;10.55;;
14526;SDS011;7350;51.208;4.238;2023-03-09T12:43:31;11.95;;;10.63;;
14526;SDS011;7350;51.208;4.238;2023-03-09T12:49:22;11.63;;;10.40;;
14526;SDS011;7350;51.208;4.238;2023-03-09T12:52:02;10.80;;;9.70;;
14526;SDS011;7350;51.208;4.238;2023-03-09T12:54:53;10.75;;;9.27;;
14526;SDS011;7350;51.208;4.238;2023-03-09T12:57:22;11.30;;;10.10;;
14526;SDS011;7350;51.208;4.238;2023-03-09T12:59:50;11.00;;;9.90;;
14526;SDS011;7350;51.208;4.238;2023-03-09T13:02:26;11.65;;;10.05;;
14526;SDS011;7350;51.208;4.238;2023-03-09T13:05:12;10.10;;;9.10;;
14526;SDS011;7350;51.208;4.238;2023-03-09T13:07:55;10.75;;;9.65;;
14526;SDS011;7350;51.208;4.238;2023-03-09T13:10:32;12.85;;;9.90;;
14526;SDS011;7350;51.208;4.238;2023-03-09T13:22:20;9.65;;;8.52;;
14526;SDS011;7350;51.208;4.238;2023-03-09T13:28:20;10.30;;;9.20;;
14526;SDS011;7350;51.208;4.238;2023-03-09T13:31:00;9.65;;;8.57;;
14526;SDS011;7350;51.208;4.238;2023-03-09T13:33:31;9.63;;;8.52;;
14526;SDS011;7350;51.208;4.238;2023-03-09T13:36:05;9.38;;;8.07;;
14526;SDS011;7350;51.208;4.238;2023-03-09T13:38:37;9.77;;;8.18;;
14526;SDS011;7350;51.208;4.238;2023-03-09T13:41:14;8.85;;;7.95;;
14526;SDS011;7350;51.208;4.238;2023-03-09T13:43:45;8.27;;;7.43;;
14526;SDS011;7350;51.208;4.238;2023-03-09T13:46:19;8.95;;;8.05;;
14526;SDS011;7350;51.208;4.238;2023-03-09T13:48:53;9.00;;;8.10;;
14526;SDS011;7350;51.208;4.238;2023-03-09T13:51:23;8.75;;;7.85;;
14526;SDS011;7350;51.208;4.238;2023-03-09T13:53:53;9.77;;;7.78;;
14526;SDS011;7350;51.208;4.238;2023-03-09T13:56:20;8.23;;;7.40;;
14526;SDS011;7350;51.208;4.238;2023-03-09T13:58:47;8.55;;;7.75;;
14526;SDS011;7350;51.208;4.238;2023-03-09T14:01:19;9.80;;;7.88;;
14526;SDS011;7350;51.208;4.238;2023-03-09T14:03:48;8.70;;;7.90;;
14526;SDS011;7350;51.208;4.238;2023-03-09T14:06:19;8.07;;;7.28;;
14526;SDS011;7350;51.208;4.238;2023-03-09T14:08:54;8.55;;;7.75;;
14526;SDS011;7350;51.208;4.238;2023-03-09T14:11:30;8.20;;;7.40;;
14526;SDS011;7350;51.208;4.238;2023-03-09T14:13:59;7.75;;;6.95;;
14526;SDS011;7350;51.208;4.238;2023-03-09T14:16:29;8.10;;;7.30;;
14526;SDS011;7350;51.208;4.238;2023-03-09T14:18:58;8.32;;;7.53;;
14526;SDS011;7350;51.208;4.238;2023-03-09T14:21:26;8.55;;;7.75;;
14526;SDS011;7350;51.208;4.238;2023-03-09T14:24:09;8.38;;;7.15;;
14526;SDS011;7350;51.208;4.238;2023-03-09T14:26:37;7.82;;;7.03;;
14526;SDS011;7350;51.208;4.238;2023-03-09T14:29:05;7.45;;;6.68;;
14526;SDS011;7350;51.208;4.238;2023-03-09T14:31:44;7.68;;;6.80;;
14526;SDS011;7350;51.208;4.238;2023-03-09T14:34:24;8.10;;;6.53;;
14526;SDS011;7350;51.208;4.238;2023-03-09T14:36:53;7.47;;;6.50;;
14526;SDS011;7350;51.208;4.238;2023-03-09T14:39:27;7.18;;;6.47;;
14526;SDS011;7350;51.208;4.238;2023-03-09T14:42:02;7.13;;;6.43;;
14526;SDS011;7350;51.208;4.238;2023-03-09T14:44:41;7.22;;;6.53;;
14526;SDS011;7350;51.208;4.238;2023-03-09T14:47:11;7.20;;;6.50;;
14526;SDS011;7350;51.208;4.238;2023-03-09T14:49:40;7.55;;;6.85;;
14526;SDS011;7350;51.208;4.238;2023-03-09T14:52:08;6.53;;;5.90;;
14526;SDS011;7350;51.208;4.238;2023-03-09T14:54:38;6.55;;;5.95;;
14526;SDS011;7350;51.208;4.238;2023-03-09T14:57:05;7.00;;;5.78;;
14526;SDS011;7350;51.208;4.238;2023-03-09T14:59:36;6.32;;;5.60;;
14526;SDS011;7350;51.208;4.238;2023-03-09T15:02:03;6.32;;;5.72;;
14526;SDS011;7350;51.208;4.238;2023-03-09T15:04:31;6.38;;;5.75;;
14526;SDS011;7350;51.208;4.238;2023-03-09T15:06:59;6.10;;;5.50;;
14526;SDS011;7350;51.208;4.238;2023-03-09T15:09:28;6.20;;;5.60;;
14526;SDS011;7350;51.208;4.238;2023-03-09T15:11:58;6.75;;;6.05;;
14526;SDS011;7350;51.208;4.238;2023-03-09T15:14:28;6.30;;;5.70;;
14526;SDS011;7350;51.208;4.238;2023-03-09T15:16:57;5.78;;;5.10;;
14526;SDS011;7350;51.208;4.238;2023-03-09T15:19:25;5.72;;;5.22;;
14526;SDS011;7350;51.208;4.238;2023-03-09T15:21:53;5.65;;;5.07;;
14526;SDS011;7350;51.208;4.238;2023-03-09T15:24:22;5.35;;;4.85;;
14526;SDS011;7350;51.208;4.238;2023-03-09T15:26:49;5.25;;;4.75;;
14526;SDS011;7350;51.208;4.238;2023-03-09T15:29:19;5.85;;;5.10;;